Time;durP1;ratioP1;P1;durP2;ratioP2;P2;SDS_P1;SDS_P2;PMS_P1;PMS_P2;Temp;Humidity;BMP_temperature;BMP_pressure;BME280_temperature;BME280_humidity;BME280_pressure;Samples;Min_cycle;Max_cycle;Signal;HPM_P1;HPM_P2
2023/10/29 00:02:01;;;;;;;5.13;3.17;;;10.20;99.90;;;;;;5113661;28;20724;-73
2023/10/29 00:04:32;;;;;;;3.87;2.90;;;10.10;99.90;;;;;;5113708;28;20282;-74
2023/10/29 00:07:00;;;;;;;4.50;3.17;;;10.00;99.90;;;;;;5113529;28;20280;-73
2023/10/29 00:09:27;;;;;;;3.90;2.90;;;9.90;99.90;;;;;;5113787;28;20199;-73
2023/10/29 00:11:53;;;;;;;5.43;3.00;;;10.00;99.90;;;;;;5113647;28;20203;-73
2023/10/29 00:14:20;;;;;;;7.50;3.37;;;10.00;99.90;;;;;;5113722;28;20264;-73
2023/10/29 00:16:46;;;;;;;8.03;4.23;;;9.90;99.90;;;;;;5113600;28;20195;-73
2023/10/29 00:19:13;;;;;;;5.03;2.90;;;10.00;99.90;;;;;;5113341;28;20196;-73
2023/10/29 00:21:40;;;;;;;4.77;3.43;;;10.00;99.90;;;;;;5113605;28;20252;-73
2023/10/29 00:24:08;;;;;;;8.17;3.10;;;9.90;99.90;;;;;;5113487;28;20200;-73
2023/10/29 00:26:35;;;;;;;4.53;2.60;;;10.20;99.90;;;;;;5113185;28;20603;-73
2023/10/29 00:29:02;;;;;;;3.60;2.53;;;10.30;99.90;;;;;;5113455;28;20248;-73
2023/10/29 00:31:28;;;;;;;4.93;2.70;;;10.30;99.90;;;;;;5113200;28;20191;-72
2023/10/29 00:33:55;;;;;;;3.93;2.57;;;10.30;99.90;;;;;;5113327;28;20224;-74
2023/10/29 00:36:22;;;;;;;5.47;2.60;;;10.60;99.90;;;;;;5113431;28;20256;-73
2023/10/29 00:38:48;;;;;;;5.50;2.33;;;10.60;99.90;;;;;;5113155;28;20598;-73
2023/10/29 00:41:16;;;;;;;3.53;2.40;;;10.60;99.90;;;;;;5112772;28;20649;-73
2023/10/29 00:43:43;;;;;;;4.13;2.50;;;10.60;99.90;;;;;;5113232;28;20335;-74
2023/10/29 00:46:12;;;;;;;5.67;2.57;;;10.60;99.90;;;;;;5113049;28;20232;-72
2023/10/29 00:48:39;;;;;;;4.63;2.60;;;10.70;99.90;;;;;;5113228;28;20199;-73
2023/10/29 00:51:06;;;;;;;4.50;2.40;;;10.70;99.90;;;;;;5113225;28;20195;-73
2023/10/29 00:53:34;;;;;;;5.97;2.70;;;10.80;99.90;;;;;;5113256;28;20248;-73
2023/10/29 00:56:01;;;;;;;3.53;2.50;;;10.70;99.90;;;;;;5113228;28;20203;-73
2023/10/29 00:58:30;;;;;;;5.87;3.03;;;10.80;99.90;;;;;;5113085;28;20195;-73
2023/10/29 01:00:57;;;;;;;8.30;2.70;;;10.80;99.90;;;;;;5112947;28;20642;-73
2023/10/29 01:03:23;;;;;;;4.80;3.00;;;10.80;99.90;;;;;;5113104;28;20246;-73
2023/10/29 01:05:51;;;;;;;3.83;2.60;;;10.70;99.90;;;;;;5113087;28;20389;-73
2023/10/29 01:08:18;;;;;;;4.07;2.37;;;10.70;99.90;;;;;;5113037;28;20249;-73
2023/10/29 01:10:44;;;;;;;4.43;2.57;;;10.70;99.90;;;;;;5112965;28;20245;-73
2023/10/29 01:13:11;;;;;;;3.80;2.47;;;10.80;99.90;;;;;;5112970;28;20202;-73
2023/10/29 01:15:39;;;;;;;4.10;2.40;;;10.80;99.90;;;;;;5113095;28;20195;-74
2023/10/29 01:18:06;;;;;;;4.77;2.97;;;10.80;99.90;;;;;;5112980;28;20245;-74
2023/10/29 01:20:33;;;;;;;2.60;2.40;;;10.80;99.90;;;;;;5112969;28;20286;-74
2023/10/29 01:23:00;;;;;;;3.97;2.27;;;10.70;99.90;;;;;;5112891;28;20245;-74
2023/10/29 01:25:26;;;;;;;3.73;2.37;;;10.70;99.90;;;;;;5112851;28;20196;-74
2023/10/29 01:27:54;;;;;;;4.20;2.57;;;10.80;99.90;;;;;;5112617;28;20227;-74
2023/10/29 01:30:20;;;;;;;4.17;2.50;;;10.80;99.90;;;;;;5112989;28;20207;-74
2023/10/29 01:32:48;;;;;;;5.67;2.50;;;10.90;99.90;;;;;;5112917;28;20196;-74
2023/10/29 01:35:15;;;;;;;11.20;2.50;;;10.90;99.90;;;;;;5112548;28;20227;-73
2023/10/29 01:37:42;;;;;;;3.57;2.67;;;10.90;99.90;;;;;;5112762;28;20256;-73
2023/10/29 01:40:09;;;;;;;3.50;2.50;;;10.90;99.90;;;;;;5118862;28;20192;-74
2023/10/29 01:42:36;;;;;;;3.13;2.10;;;10.80;99.90;;;;;;5112702;28;20199;-74
2023/10/29 01:45:03;;;;;;;4.37;2.40;;;10.80;99.90;;;;;;5112456;28;20299;-74
2023/10/29 01:47:30;;;;;;;5.80;2.50;;;10.80;99.90;;;;;;5112675;28;20323;-74
2023/10/29 01:49:58;;;;;;;3.77;2.50;;;10.80;99.90;;;;;;5112649;28;20257;-74
2023/10/29 01:52:25;;;;;;;5.10;2.50;;;10.70;99.90;;;;;;5113689;28;20221;-74
2023/10/29 01:54:51;;;;;;;4.43;2.57;;;10.70;99.90;;;;;;5116147;28;20223;-73
2023/10/29 01:57:18;;;;;;;4.37;2.33;;;10.70;99.90;;;;;;5116375;28;20199;-73
2023/10/29 01:59:44;;;;;;;4.87;2.40;;;10.70;99.90;;;;;;5116201;28;20256;-74
2023/10/29 02:02:11;;;;;;;5.67;2.70;;;10.70;99.90;;;;;;5116260;28;20219;-74
2023/10/29 02:04:38;;;;;;;5.40;2.43;;;10.60;99.90;;;;;;5115998;28;20650;-74
2023/10/29 02:07:07;;;;;;;4.13;2.30;;;10.60;99.90;;;;;;5115986;28;20288;-73
2023/10/29 02:09:34;;;;;;;4.20;2.70;;;10.60;99.90;;;;;;5115922;28;20576;-73
2023/10/29 02:12:01;;;;;;;4.83;2.33;;;10.60;99.90;;;;;;5116042;28;20244;-74
2023/10/29 02:14:28;;;;;;;3.77;2.30;;;10.60;99.90;;;;;;5115835;28;20195;-73
2023/10/29 02:16:55;;;;;;;2.43;2.10;;;10.60;99.90;;;;;;5115686;28;20617;-74
2023/10/29 02:19:22;;;;;;;4.67;2.73;;;10.70;99.90;;;;;;5115809;28;20203;-73
2023/10/29 02:21:48;;;;;;;3.70;2.57;;;10.70;99.90;;;;;;5115588;28;20655;-73
2023/10/29 02:24:17;;;;;;;2.60;2.20;;;10.60;99.90;;;;;;5115839;28;20228;-74
2023/10/29 02:26:43;;;;;;;3.40;2.57;;;10.60;99.90;;;;;;5115725;28;20260;-73
2023/10/29 02:29:10;;;;;;;5.23;2.53;;;10.70;99.90;;;;;;5115805;28;20264;-74
2023/10/29 02:31:36;;;;;;;4.67;2.33;;;10.70;99.90;;;;;;5115638;28;20529;-73
2023/10/29 02:34:03;;;;;;;3.37;2.27;;;10.70;99.90;;;;;;5115372;28;20223;-73
2023/10/29 02:36:30;;;;;;;5.67;2.70;;;10.80;99.90;;;;;;5115478;28;20199;-73
2023/10/29 02:38:57;;;;;;;6.10;2.43;;;10.80;99.90;;;;;;5115686;28;20196;-74
2023/10/29 02:41:25;;;;;;;5.10;2.93;;;10.80;99.90;;;;;;5115366;28;20651;-73
2023/10/29 02:43:54;;;;;;;2.60;2.20;;;10.80;99.90;;;;;;5115373;28;20708;-73
2023/10/29 02:46:21;;;;;;;5.40;2.77;;;10.80;99.90;;;;;;5115315;28;20460;-74
2023/10/29 02:48:48;;;;;;;5.60;2.47;;;10.90;99.90;;;;;;5115199;28;20199;-73
2023/10/29 02:51:14;;;;;;;5.70;2.10;;;10.90;99.90;;;;;;5115126;28;20191;-73
2023/10/29 02:53:41;;;;;;;4.97;2.60;;;10.80;99.90;;;;;;5115100;28;20581;-73
2023/10/29 02:56:08;;;;;;;5.37;2.23;;;10.80;99.90;;;;;;5115107;28;20195;-74
2023/10/29 02:58:36;;;;;;;3.13;2.40;;;10.80;99.90;;;;;;5115189;28;20256;-73
2023/10/29 03:01:05;;;;;;;2.87;2.20;;;10.70;99.90;;;;;;5115075;28;20195;-73
2023/10/29 03:03:32;;;;;;;5.07;2.20;;;10.70;99.90;;;;;;5114723;28;20206;-74
2023/10/29 03:05:58;;;;;;;4.50;2.40;;;10.60;99.90;;;;;;5115110;28;20262;-74
2023/10/29 03:08:25;;;;;;;4.07;2.60;;;10.50;99.90;;;;;;5114973;28;20227;-74
2023/10/29 03:10:52;;;;;;;4.87;2.73;;;10.50;99.90;;;;;;5114881;28;20199;-73
2023/10/29 03:13:18;;;;;;;6.50;2.50;;;10.40;99.90;;;;;;5114997;28;20241;-73
2023/10/29 03:15:47;;;;;;;3.00;2.27;;;10.30;99.90;;;;;;5116185;28;20528;-73
2023/10/29 03:18:14;;;;;;;4.13;2.47;;;10.20;99.90;;;;;;5139076;28;20171;-73
2023/10/29 03:20:40;;;;;;;4.10;2.23;;;10.20;99.90;;;;;;5140123;28;20200;-73
2023/10/29 03:23:07;;;;;;;5.67;2.50;;;10.10;99.90;;;;;;5122413;28;20195;-74
2023/10/29 03:25:34;;;;;;;5.87;2.50;;;10.20;99.90;;;;;;5115022;28;20253;-73
2023/10/29 03:28:01;;;;;;;3.73;2.37;;;10.10;99.90;;;;;;5114466;28;20277;-74
2023/10/29 03:30:28;;;;;;;4.33;2.47;;;10.00;99.90;;;;;;5114770;28;20195;-73
2023/10/29 03:32:56;;;;;;;3.80;2.40;;;10.00;99.90;;;;;;5114303;28;20596;-73
2023/10/29 03:35:22;;;;;;;4.03;2.13;;;10.10;99.90;;;;;;5114255;28;20227;-73
2023/10/29 03:37:49;;;;;;;3.33;2.30;;;10.00;99.90;;;;;;5114424;28;20257;-73
2023/10/29 03:40:16;;;;;;;5.93;2.20;;;10.00;99.90;;;;;;5114565;28;20642;-73
2023/10/29 03:42:42;;;;;;;2.70;2.40;;;10.00;99.90;;;;;;5114135;28;20253;-74
2023/10/29 03:45:10;;;;;;;2.90;2.20;;;10.10;99.90;;;;;;5114076;28;20229;-74
2023/10/29 03:47:36;;;;;;;2.93;2.17;;;10.10;99.90;;;;;;5114112;28;20653;-74
2023/10/29 03:50:05;;;;;;;2.87;2.20;;;10.10;99.90;;;;;;5114216;28;20245;-74
2023/10/29 03:52:32;;;;;;;3.47;2.30;;;10.10;99.90;;;;;;5114371;28;20248;-73
2023/10/29 03:54:59;;;;;;;3.37;2.10;;;10.00;99.90;;;;;;5113888;28;20593;-74
2023/10/29 03:57:26;;;;;;;3.40;2.10;;;10.00;99.90;;;;;;5113950;28;20199;-73
2023/10/29 03:59:52;;;;;;;3.30;2.03;;;10.00;99.90;;;;;;5113887;28;20198;-74
2023/10/29 04:02:19;;;;;;;3.47;1.90;;;10.00;99.90;;;;;;5114056;28;20214;-75
2023/10/29 04:04:46;;;;;;;5.30;1.80;;;10.00;99.90;;;;;;5113870;28;20200;-74
2023/10/29 04:07:14;;;;;;;4.60;2.10;;;10.10;99.90;;;;;;5113886;28;20219;-73
2023/10/29 04:09:40;;;;;;;4.33;2.23;;;10.10;99.90;;;;;;5113862;28;20196;-73
2023/10/29 04:12:07;;;;;;;2.57;2.20;;;10.00;99.90;;;;;;5113655;28;20598;-73
2023/10/29 04:14:35;;;;;;;3.53;1.83;;;10.00;99.90;;;;;;5113120;28;20203;-74
2023/10/29 04:17:01;;;;;;;2.43;2.00;;;9.90;99.90;;;;;;5113644;28;20294;-73
2023/10/29 04:19:28;;;;;;;4.10;1.97;;;9.80;99.90;;;;;;5113586;28;20253;-73
2023/10/29 04:21:54;;;;;;;2.90;2.03;;;9.70;99.90;;;;;;5113503;28;20252;-74
2023/10/29 04:24:22;;;;;;;2.87;2.13;;;9.60;99.90;;;;;;5113525;28;20200;-74
2023/10/29 04:26:49;;;;;;;3.53;2.00;;;9.70;99.90;;;;;;5113256;28;20262;-73
2023/10/29 04:29:16;;;;;;;3.70;2.10;;;9.70;99.90;;;;;;5113305;28;20759;-73
2023/10/29 04:31:43;;;;;;;3.27;2.10;;;9.70;99.90;;;;;;5113600;28;20256;-73
2023/10/29 04:34:09;;;;;;;4.53;1.90;;;9.70;99.90;;;;;;5122115;28;20214;-74
2023/10/29 04:36:36;;;;;;;4.67;2.13;;;9.80;99.90;;;;;;5133839;27;20270;-74
2023/10/29 04:39:03;;;;;;;3.13;2.10;;;9.80;99.90;;;;;;5133821;27;20206;-74
2023/10/29 04:41:31;;;;;;;5.07;2.17;;;9.90;99.90;;;;;;5133661;27;20224;-73
2023/10/29 04:43:58;;;;;;;5.30;2.10;;;9.90;99.90;;;;;;5133580;27;20224;-73
2023/10/29 04:46:25;;;;;;;2.87;1.83;;;9.80;99.90;;;;;;5133831;27;20199;-73
2023/10/29 04:48:51;;;;;;;4.13;2.03;;;9.80;99.90;;;;;;5133686;28;20279;-73
2023/10/29 04:51:18;;;;;;;3.03;2.07;;;9.70;99.90;;;;;;5133858;28;20210;-74
2023/10/29 04:53:45;;;;;;;4.27;2.10;;;9.70;99.90;;;;;;5133559;28;20198;-74
2023/10/29 04:56:11;;;;;;;7.23;2.10;;;9.60;99.90;;;;;;5133519;28;20227;-74
2023/10/29 04:58:39;;;;;;;3.30;1.97;;;9.50;99.90;;;;;;5133755;28;20251;-73
2023/10/29 05:01:07;;;;;;;2.43;1.90;;;9.50;99.90;;;;;;5133721;28;20604;-74
2023/10/29 05:03:34;;;;;;;4.10;2.00;;;9.50;99.90;;;;;;5133704;28;20199;-73
2023/10/29 05:06:01;;;;;;;3.17;2.10;;;9.40;99.90;;;;;;5133511;28;20646;-74
2023/10/29 05:08:27;;;;;;;2.60;2.00;;;9.40;99.90;;;;;;5133448;28;20242;-73
2023/10/29 05:10:54;;;;;;;2.67;1.93;;;9.40;99.90;;;;;;5133398;28;20207;-73
2023/10/29 05:13:20;;;;;;;3.50;1.93;;;9.50;99.90;;;;;;5133728;28;20543;-73
2023/10/29 05:15:48;;;;;;;1.60;1.50;;;9.50;99.90;;;;;;5133372;28;20588;-74
2023/10/29 05:18:15;;;;;;;4.33;1.80;;;9.50;99.90;;;;;;5133514;28;20218;-73
2023/10/29 05:20:42;;;;;;;3.20;2.10;;;9.60;99.90;;;;;;5133489;28;20194;-73
2023/10/29 05:23:10;;;;;;;3.27;1.97;;;9.50;99.90;;;;;;5133269;28;20195;-73
2023/10/29 05:25:39;;;;;;;3.63;2.07;;;9.50;99.90;;;;;;5133534;28;20224;-74
2023/10/29 05:28:05;;;;;;;2.73;1.70;;;9.50;99.90;;;;;;5137309;27;20222;-73
2023/10/29 05:30:32;;;;;;;2.93;2.10;;;9.60;99.90;;;;;;5137392;27;20255;-74
2023/10/29 05:33:00;;;;;;;3.93;2.07;;;9.60;99.90;;;;;;5137281;27;20195;-73
2023/10/29 05:35:27;;;;;;;4.87;2.80;;;9.60;99.90;;;;;;5136929;27;20227;-73
2023/10/29 05:37:53;;;;;;;2.63;2.00;;;9.50;99.90;;;;;;5137113;27;20232;-73
2023/10/29 05:40:20;;;;;;;2.10;1.63;;;9.60;99.90;;;;;;5137320;27;20244;-73
2023/10/29 05:42:47;;;;;;;6.47;2.20;;;9.70;99.90;;;;;;5137476;27;20243;-72
2023/10/29 05:45:13;;;;;;;3.83;1.80;;;9.70;99.90;;;;;;5137340;27;20202;-72
2023/10/29 05:47:40;;;;;;;5.90;2.07;;;9.70;99.90;;;;;;5137092;27;20226;-73
2023/10/29 05:50:09;;;;;;;3.80;1.97;;;9.70;99.90;;;;;;5136920;27;20202;-73
2023/10/29 05:52:36;;;;;;;2.47;1.90;;;9.70;99.90;;;;;;5137051;27;20198;-73
2023/10/29 05:55:04;;;;;;;2.00;1.70;;;9.70;99.90;;;;;;5136953;27;20194;-73
2023/10/29 05:57:30;;;;;;;5.43;1.90;;;9.80;99.90;;;;;;5136851;27;20207;-73
2023/10/29 05:59:57;;;;;;;2.60;1.87;;;9.70;99.90;;;;;;5136899;27;20592;-73
2023/10/29 06:02:24;;;;;;;4.33;2.00;;;9.80;99.90;;;;;;5136792;27;20199;-73
2023/10/29 06:04:51;;;;;;;2.37;2.13;;;9.80;99.90;;;;;;5136472;27;20220;-73
2023/10/29 06:07:19;;;;;;;3.63;1.80;;;9.80;99.90;;;;;;5136574;27;20195;-73
2023/10/29 06:09:47;;;;;;;2.80;2.13;;;9.80;99.90;;;;;;5136668;27;20282;-73
2023/10/29 06:12:13;;;;;;;3.70;1.90;;;10.00;99.90;;;;;;5136498;27;20591;-73
2023/10/29 06:14:40;;;;;;;4.40;2.00;;;10.00;99.90;;;;;;5136284;27;20191;-73
2023/10/29 06:17:07;;;;;;;2.03;1.83;;;10.10;99.90;;;;;;5136328;27;20277;-73
2023/10/29 06:19:34;;;;;;;3.17;1.60;;;10.20;99.90;;;;;;5136234;27;20222;-73
2023/10/29 06:22:00;;;;;;;4.67;1.90;;;10.20;99.90;;;;;;5136431;27;20263;-73
2023/10/29 06:24:28;;;;;;;2.40;1.97;;;10.30;99.90;;;;;;5136412;27;20271;-73
2023/10/29 06:26:55;;;;;;;2.60;1.83;;;10.40;99.90;;;;;;5136271;27;20199;-73
2023/10/29 06:29:22;;;;;;;2.50;1.83;;;10.60;99.90;;;;;;5136149;27;20226;-73
2023/10/29 06:31:49;;;;;;;3.03;1.97;;;10.60;99.90;;;;;;5136140;27;20195;-73
2023/10/29 06:34:15;;;;;;;2.17;1.73;;;10.70;99.90;;;;;;5135798;27;20279;-73
2023/10/29 06:36:42;;;;;;;3.50;1.70;;;10.70;99.90;;;;;;5136232;27;20195;-73
2023/10/29 06:39:09;;;;;;;1.97;1.70;;;10.70;99.90;;;;;;5135534;27;20199;-74
2023/10/29 06:41:37;;;;;;;2.33;1.70;;;10.70;99.90;;;;;;5135809;27;20195;-73
2023/10/29 06:44:04;;;;;;;3.13;1.80;;;10.70;99.90;;;;;;5135953;27;20191;-73
2023/10/29 06:46:32;;;;;;;2.17;1.97;;;10.70;99.90;;;;;;5135837;27;20212;-73
2023/10/29 06:48:59;;;;;;;3.30;1.80;;;10.70;99.90;;;;;;5135392;27;20662;-73
2023/10/29 06:51:25;;;;;;;5.60;2.13;;;10.80;99.90;;;;;;5135839;27;20277;-73
2023/10/29 06:53:52;;;;;;;3.97;2.40;;;10.80;99.90;;;;;;5135907;27;20247;-73
2023/10/29 06:56:19;;;;;;;2.87;1.80;;;10.80;99.90;;;;;;5135597;27;20191;-73
2023/10/29 06:58:47;;;;;;;4.97;2.10;;;10.80;99.90;;;;;;5135637;27;20225;-73
2023/10/29 07:01:14;;;;;;;4.13;2.30;;;10.80;99.90;;;;;;5135453;27;20206;-73
2023/10/29 07:03:42;;;;;;;5.60;2.40;;;10.80;99.90;;;;;;5135701;27;20274;-73
2023/10/29 07:06:10;;;;;;;4.97;2.00;;;10.90;99.90;;;;;;5134983;27;20199;-72
2023/10/29 07:08:37;;;;;;;3.57;1.93;;;10.90;99.90;;;;;;5135292;27;20229;-73
2023/10/29 07:11:05;;;;;;;2.27;1.87;;;11.00;99.90;;;;;;5135279;27;20619;-73
2023/10/29 07:13:32;;;;;;;3.37;1.80;;;11.00;99.90;;;;;;5135185;27;20222;-73
2023/10/29 07:16:02;;;;;;;3.57;1.90;;;11.10;99.90;;;;;;5135417;27;20282;-73
2023/10/29 07:18:29;;;;;;;4.73;1.80;;;11.10;99.90;;;;;;5135126;27;20672;-73
2023/10/29 07:20:56;;;;;;;2.80;1.80;;;11.10;99.90;;;;;;5135189;27;20248;-73
2023/10/29 07:23:23;;;;;;;2.87;1.93;;;11.10;99.90;;;;;;5135090;27;20286;-73
2023/10/29 07:25:50;;;;;;;4.93;2.03;;;11.10;99.90;;;;;;5134985;27;20658;-73
2023/10/29 07:28:18;;;;;;;3.33;2.03;;;11.10;99.90;;;;;;5134790;27;20574;-74
2023/10/29 07:30:44;;;;;;;3.27;2.40;;;11.00;99.90;;;;;;5135064;27;20198;-74
2023/10/29 07:33:12;;;;;;;4.43;2.10;;;11.00;99.90;;;;;;5134679;27;20195;-74
2023/10/29 07:35:40;;;;;;;3.80;2.03;;;10.90;99.90;;;;;;5134542;27;20298;-74
2023/10/29 07:38:07;;;;;;;3.70;2.20;;;10.90;99.90;;;;;;5134778;27;20199;-74
2023/10/29 07:40:35;;;;;;;3.40;2.30;;;11.00;99.90;;;;;;5134533;27;20194;-74
2023/10/29 07:43:03;;;;;;;3.73;1.87;;;11.10;99.90;;;;;;5134801;27;20191;-74
2023/10/29 07:45:30;;;;;;;4.13;1.97;;;11.10;99.90;;;;;;5134485;27;20658;-74
2023/10/29 07:47:56;;;;;;;4.83;2.30;;;11.10;99.90;;;;;;5134505;27;20287;-73
2023/10/29 07:50:24;;;;;;;2.53;2.00;;;11.10;99.90;;;;;;5133695;27;20249;-74
2023/10/29 07:52:51;;;;;;;2.93;2.13;;;11.10;99.90;;;;;;5134442;27;20195;-73
2023/10/29 07:55:19;;;;;;;3.07;2.30;;;11.10;99.90;;;;;;5134271;27;20191;-73
2023/10/29 07:57:45;;;;;;;4.37;2.03;;;11.10;99.90;;;;;;5134329;27;20730;-74
2023/10/29 08:00:14;;;;;;;4.23;2.10;;;11.20;99.90;;;;;;5134433;27;20235;-73
2023/10/29 08:02:41;;;;;;;2.10;1.70;;;11.20;99.90;;;;;;5134170;27;20629;-73
2023/10/29 08:05:10;;;;;;;2.00;1.80;;;11.20;99.90;;;;;;5134277;27;20286;-73
2023/10/29 08:07:38;;;;;;;3.90;1.90;;;11.30;99.90;;;;;;5134144;27;20745;-73
2023/10/29 08:10:05;;;;;;;2.70;1.90;;;11.30;99.90;;;;;;5134095;27;20256;-73
2023/10/29 08:12:34;;;;;;;5.17;1.90;;;11.40;99.90;;;;;;5134199;27;20206;-74
2023/10/29 08:15:01;;;;;;;2.13;1.93;;;11.60;99.90;;;;;;5134292;27;20195;-73
2023/10/29 08:17:29;;;;;;;3.83;1.63;;;11.70;99.90;;;;;;5133952;27;20197;-74
2023/10/29 08:19:55;;;;;;;3.87;2.13;;;11.80;99.90;;;;;;5133895;27;20199;-75
2023/10/29 08:22:22;;;;;;;4.07;2.70;;;11.70;99.90;;;;;;5133807;27;20203;-74
2023/10/29 08:24:50;;;;;;;2.80;2.40;;;11.60;99.90;;;;;;5133998;27;20195;-72
2023/10/29 08:27:17;;;;;;;2.73;2.40;;;11.70;99.90;;;;;;5133811;27;20191;-74
2023/10/29 08:29:45;;;;;;;3.47;2.63;;;11.80;99.90;;;;;;5133911;27;20631;-74
2023/10/29 08:32:12;;;;;;;4.07;2.47;;;11.90;99.90;;;;;;5133760;27;20196;-73
2023/10/29 08:34:39;;;;;;;6.17;2.10;;;12.10;99.90;;;;;;5133751;27;20222;-73
2023/10/29 08:37:05;;;;;;;2.77;2.10;;;12.20;99.90;;;;;;5127186;27;20207;-74
2023/10/29 08:39:32;;;;;;;2.57;2.10;;;12.50;99.90;;;;;;5113705;28;20608;-73
2023/10/29 08:42:02;;;;;;;4.23;3.30;;;12.70;99.90;;;;;;5113535;28;20192;-74
2023/10/29 08:44:29;;;;;;;8.20;6.10;;;12.70;99.90;;;;;;5113094;28;20235;-73
2023/10/29 08:46:56;;;;;;;3.33;2.60;;;13.00;99.90;;;;;;5113187;28;20544;-74
2023/10/29 08:49:22;;;;;;;3.47;2.70;;;13.50;99.90;;;;;;5113008;28;20219;-74
2023/10/29 08:51:50;;;;;;;4.10;2.17;;;13.60;99.90;;;;;;5112989;28;20536;-75
2023/10/29 08:54:17;;;;;;;5.47;2.57;;;13.70;99.90;;;;;;5113251;28;20562;-75
2023/10/29 08:56:43;;;;;;;3.90;2.27;;;13.90;99.90;;;;;;5113139;28;20231;-74
2023/10/29 08:59:11;;;;;;;2.93;2.00;;;14.10;99.90;;;;;;5113014;28;20199;-77
2023/10/29 09:01:38;;;;;;;3.60;2.20;;;14.20;99.90;;;;;;5114469;28;20590;-74
2023/10/29 09:04:05;;;;;;;2.67;2.00;;;14.10;99.90;;;;;;5113693;28;20196;-75
2023/10/29 09:06:32;;;;;;;4.37;2.30;;;14.40;99.90;;;;;;5113927;28;20195;-75
2023/10/29 09:08:59;;;;;;;3.00;2.17;;;14.50;99.90;;;;;;5113008;28;20642;-74
2023/10/29 09:11:26;;;;;;;2.03;1.80;;;14.30;99.90;;;;;;5113657;28;20551;-74
2023/10/29 09:13:52;;;;;;;2.00;1.80;;;14.20;99.90;;;;;;5113435;28;20203;-74
2023/10/29 09:16:20;;;;;;;2.77;1.87;;;14.20;99.90;;;;;;5113459;28;20199;-74
2023/10/29 09:18:47;;;;;;;3.43;1.87;;;14.10;99.90;;;;;;5113341;28;20203;-74
2023/10/29 09:21:14;;;;;;;2.67;1.97;;;14.00;99.90;;;;;;5113343;28;20540;-74
2023/10/29 09:23:41;;;;;;;1.87;1.67;;;14.00;99.90;;;;;;5113329;28;20192;-73
2023/10/29 09:26:08;;;;;;;2.37;1.90;;;14.10;99.90;;;;;;5113302;28;20203;-74
2023/10/29 09:28:34;;;;;;;3.97;2.20;;;14.10;99.90;;;;;;5113105;28;20257;-74
2023/10/29 09:31:03;;;;;;;2.27;1.60;;;14.20;99.90;;;;;;5113072;28;20670;-73
2023/10/29 09:33:31;;;;;;;2.53;1.70;;;14.10;99.90;;;;;;5112774;28;20196;-74
2023/10/29 09:36:00;;;;;;;1.93;1.73;;;14.10;99.90;;;;;;5113270;28;20248;-74
2023/10/29 09:38:26;;;;;;;3.43;2.13;;;14.30;99.90;;;;;;5113177;28;20195;-73
2023/10/29 09:40:53;;;;;;;2.93;2.10;;;14.50;99.90;;;;;;5112936;28;20196;-74
2023/10/29 09:43:21;;;;;;;3.17;2.87;;;14.80;99.90;;;;;;5112628;28;20225;-74
2023/10/29 09:45:49;;;;;;;2.95;2.20;;;14.90;99.90;;;;;;5112719;28;20282;-74
2023/10/29 09:48:16;;;;;;;2.72;2.08;;;15.00;99.90;;;;;;5112966;28;20200;-74
2023/10/29 09:50:44;;;;;;;2.33;1.98;;;15.10;99.90;;;;;;5113035;28;20286;-74
2023/10/29 09:53:12;;;;;;;2.17;1.90;;;15.30;99.90;;;;;;5112914;28;20207;-74
2023/10/29 09:55:40;;;;;;;2.22;2.00;;;15.50;99.90;;;;;;5112537;28;20278;-74
2023/10/29 09:58:07;;;;;;;6.30;2.50;;;15.80;99.90;;;;;;5112635;28;20206;-74
2023/10/29 10:00:34;;;;;;;3.25;2.40;;;16.00;99.90;;;;;;5112654;28;20211;-74
2023/10/29 10:03:01;;;;;;;3.90;2.50;;;16.20;99.90;;;;;;5112860;28;20203;-74
2023/10/29 10:05:29;;;;;;;1.90;1.80;;;16.40;99.90;;;;;;5112721;28;20211;-74
2023/10/29 10:07:57;;;;;;;2.85;1.83;;;16.70;99.90;;;;;;5112091;28;20767;-74
2023/10/29 10:10:38;;;;;;;3.38;2.10;;;16.60;99.90;;;;;;5112348;28;20751;-74
2023/10/29 10:13:05;;;;;;;2.58;2.00;;;16.60;99.90;;;;;;5111753;28;20264;-74
2023/10/29 10:15:32;;;;;;;3.65;1.70;;;16.70;99.90;;;;;;5112543;28;20203;-74
2023/10/29 10:18:00;;;;;;;4.28;2.15;;;16.60;99.90;;;;;;5112571;28;20249;-75
2023/10/29 10:20:28;;;;;;;2.00;1.80;;;16.70;99.90;;;;;;5111842;28;20806;-73
2023/10/29 10:23:00;;;;;;;1.80;1.45;;;16.80;99.90;;;;;;5112367;28;20203;-75
2023/10/29 10:25:27;;;;;;;3.70;2.00;;;16.80;99.90;;;;;;5112503;28;20540;-75
2023/10/29 10:27:55;;;;;;;3.78;2.50;;;16.80;99.90;;;;;;5112393;28;20203;-75
2023/10/29 10:30:26;;;;;;;2.38;1.90;;;17.00;99.90;;;;;;5113620;28;20272;-75
2023/10/29 10:32:53;;;;;;;3.58;2.05;;;17.20;99.90;;;;;;5115710;28;20286;-75
2023/10/29 10:35:20;;;;;;;2.90;2.17;;;17.10;99.90;;;;;;5115254;28;20223;-75
2023/10/29 10:37:54;;;;;;;3.17;2.28;;;17.10;99.90;;;;;;5115382;28;20282;-75
2023/10/29 10:40:26;;;;;;;3.78;1.80;;;16.50;99.90;;;;;;5115641;28;20227;-74
2023/10/29 10:42:55;;;;;;;4.25;2.90;;;16.30;99.90;;;;;;5115575;28;20203;-74
2023/10/29 10:45:26;;;;;;;3.60;2.50;;;16.20;99.90;;;;;;5115358;28;20199;-76
2023/10/29 10:47:56;;;;;;;3.33;2.22;;;16.00;99.90;;;;;;5115322;28;20558;-74
2023/10/29 10:50:25;;;;;;;2.25;2.03;;;15.90;99.90;;;;;;5115167;28;20268;-73
2023/10/29 10:52:52;;;;;;;2.20;1.88;;;15.80;99.90;;;;;;5115285;28;20231;-73
2023/10/29 10:55:19;;;;;;;1.98;1.77;;;15.70;99.90;;;;;;5115095;28;20196;-73
2023/10/29 10:57:49;;;;;;;2.88;1.90;;;15.60;99.90;;;;;;5114875;28;20675;-73
2023/10/29 11:00:17;;;;;;;4.50;2.20;;;15.20;99.90;;;;;;5114862;28;20200;-73
2023/10/29 11:02:44;;;;;;;4.53;2.10;;;15.10;99.90;;;;;;5112359;28;20651;-74
2023/10/29 11:05:12;;;;;;;3.73;2.00;;;14.80;99.90;;;;;;5111846;28;20194;-74
2023/10/29 11:07:40;;;;;;;5.70;3.20;;;14.60;99.90;;;;;;5111556;28;20196;-73
2023/10/29 11:10:08;;;;;;;3.40;2.30;;;14.80;99.90;;;;;;5111407;28;20231;-73
2023/10/29 11:12:35;;;;;;;3.47;2.43;;;14.90;99.90;;;;;;5111052;28;20555;-73
2023/10/29 11:15:17;;;;;;;5.43;3.37;;;15.00;99.90;;;;;;5110677;28;20199;-74
2023/10/29 11:18:00;;;;;;;4.10;3.10;;;15.00;99.90;;;;;;5110388;28;20556;-73
2023/10/29 11:20:55;;;;;;;3.20;2.75;;;15.00;99.90;;;;;;5111463;28;20196;-74
2023/10/29 11:23:26;;;;;;;3.40;2.50;;;15.00;99.90;;;;;;5110976;28;20195;-73
2023/10/29 11:26:21;;;;;;;3.38;2.72;;;14.90;99.90;;;;;;5111138;28;20207;-73
2023/10/29 11:28:48;;;;;;;3.13;2.50;;;14.90;99.90;;;;;;5111102;28;20211;-73
2023/10/29 11:31:18;;;;;;;3.17;2.40;;;14.80;99.90;;;;;;5110688;28;20442;-73
2023/10/29 11:33:47;;;;;;;4.80;2.33;;;14.70;99.90;;;;;;5110593;28;20256;-73
2023/10/29 11:36:31;;;;;;;2.63;2.13;;;14.60;99.90;;;;;;5110803;28;20202;-73
2023/10/29 11:39:31;;;;;;;3.87;2.47;;;14.60;99.90;;;;;;5110174;28;20191;-73
2023/10/29 11:41:59;;;;;;;5.03;2.40;;;14.50;99.90;;;;;;5110801;28;20215;-73
2023/10/29 11:44:28;;;;;;;3.23;2.00;;;14.50;99.90;;;;;;5110579;28;20199;-73
2023/10/29 11:47:08;;;;;;;3.93;2.13;;;14.40;99.90;;;;;;5110825;28;20207;-73
2023/10/29 11:50:13;;;;;;;2.73;2.13;;;14.20;99.90;;;;;;5115308;28;20231;-73
2023/10/29 11:52:43;;;;;;;3.67;2.60;;;14.10;99.90;;;;;;5110711;28;20284;-73
2023/10/29 11:55:12;;;;;;;3.47;3.03;;;13.90;99.90;;;;;;5113098;28;20199;-73
2023/10/29 11:57:44;;;;;;;4.07;2.70;;;13.90;99.90;;;;;;5110510;28;20199;-73
2023/10/29 12:00:13;;;;;;;4.23;2.47;;;13.90;99.90;;;;;;5110419;28;20211;-73
2023/10/29 12:02:44;;;;;;;3.47;3.07;;;14.00;99.90;;;;;;5113447;28;20730;-73
2023/10/29 12:05:11;;;;;;;2.70;2.40;;;14.10;99.90;;;;;;5113532;28;20200;-74
2023/10/29 12:07:38;;;;;;;4.53;2.43;;;14.20;99.90;;;;;;5114066;28;20207;-74
2023/10/29 12:10:06;;;;;;;6.57;2.50;;;14.20;99.90;;;;;;5113562;28;20532;-74
2023/10/29 12:12:33;;;;;;;2.80;2.20;;;14.30;99.90;;;;;;5134051;27;20236;-73
2023/10/29 12:15:00;;;;;;;2.97;2.33;;;14.20;99.90;;;;;;5134191;27;20591;-74
2023/10/29 12:17:28;;;;;;;5.10;2.53;;;14.30;99.90;;;;;;5134057;27;20210;-74
2023/10/29 12:19:56;;;;;;;3.30;2.23;;;14.30;99.90;;;;;;5133682;27;20195;-74
2023/10/29 12:22:24;;;;;;;2.80;2.50;;;14.30;99.90;;;;;;5134110;27;20281;-73
2023/10/29 12:24:53;;;;;;;5.73;2.70;;;14.30;99.90;;;;;;5115131;27;20196;-73
2023/10/29 12:27:21;;;;;;;4.23;2.43;;;14.40;99.90;;;;;;5112714;28;20252;-73
2023/10/29 12:29:48;;;;;;;3.37;2.23;;;14.50;99.90;;;;;;5112685;28;20220;-73
2023/10/29 12:32:19;;;;;;;2.47;2.27;;;14.50;99.90;;;;;;5111998;28;20192;-74
2023/10/29 12:34:48;;;;;;;3.03;2.20;;;14.70;99.90;;;;;;5112982;28;20694;-73
2023/10/29 12:37:22;;;;;;;3.03;2.10;;;15.20;99.90;;;;;;5112826;28;20287;-73
2023/10/29 12:39:49;;;;;;;2.50;2.05;;;17.00;99.90;;;;;;5133715;27;20199;-73
2023/10/29 12:42:16;;;;;;;2.40;1.90;;;18.70;99.90;;;;;;5133671;27;20226;-73
2023/10/29 12:44:51;;;;;;;2.65;2.00;;;18.10;99.90;;;;;;5133608;27;20198;-75
2023/10/29 12:47:18;;;;;;;2.78;2.13;;;17.80;99.90;;;;;;5133643;27;20716;-72
2023/10/29 12:49:45;;;;;;;4.57;2.30;;;18.00;99.90;;;;;;5133667;27;20559;-74
2023/10/29 12:52:13;;;;;;;3.65;2.17;;;18.00;99.90;;;;;;5133628;27;20230;-73